Terminal Aerodrome Forecast
Issued by NWS Sioux Falls, SD

Home | Current Version | Previous Version | Text Only | Print | Product List | Glossary Off
Versions: 1 2 3 4 5 6 7 8 9 10 11 12 13 14 15 16

000
FTUS43 KFSD 060356 AAB
TAFFSD
TAF AMD
KFSD 060356Z 0604/0624 15011KT P6SM FEW040 OVC150
      TEMPO 0604/0606 P6SM -TSRA SCT020 BKN040CB
     FM060600 11011KT 5SM TSRA SCT020CB OVC080
      TEMPO 0607/0609 VRB20G40KT 2SM +TSRA OVC020CB
     FM061000 02010KT P6SM -SHRA OVC020
     FM061400 35016G22KT 6SM SHRA OVC030
     FM061700 35018G25KT P6SM SCT030 BKN100=

USA.gov is the U.S. government's official web portal to all federal, state and local government web resources and services.